Time;durP1;ratioP1;P1;durP2;ratioP2;P2;SDS_P1;SDS_P2;PMS_P1;PMS_P2;Temp;Humidity;BMP_temperature;BMP_pressure;BME280_temperature;BME280_humidity;BME280_pressure;Samples;Min_cycle;Max_cycle;Signal;HPM_P1;HPM_P2
2022/06/11 00:01:49;;;;;;;;;13.00;13.00;;;;;19.49;64.21;101305.59;5076086;28;45370;-78
2022/06/11 00:04:25;;;;;;;;;14.25;13.75;;;;;19.41;63.99;101304.28;5075810;28;46456;-80
2022/06/11 00:06:55;;;;;;;;;14.00;12.00;;;;;19.48;64.35;101312.72;5093271;27;45320;-80
2022/06/11 00:09:23;;;;;;;;;12.00;12.00;;;;;19.46;64.45;101309.31;5076502;27;45408;-74
2022/06/11 00:11:51;;;;;;;;;11.25;11.25;;;;;19.43;64.57;101301.50;5076406;27;45514;-76
2022/06/11 00:14:18;;;;;;;;;10.50;9.75;;;;;19.42;64.17;101308.69;5076556;27;45291;-76
2022/06/11 00:16:44;;;;;;;;;12.25;10.50;;;;;19.36;64.65;101301.06;5109124;27;45510;-76
2022/06/11 00:19:09;;;;;;;;;11.75;9.75;;;;;19.24;64.22;101291.22;5076199;27;45354;-75
2022/06/11 00:21:38;;;;;;;;;11.00;10.00;;;;;19.32;64.61;101302.25;5076486;27;45421;-75
2022/06/11 00:24:05;;;;;;;;;11.00;8.00;;;;;19.31;64.59;101310.31;5075906;27;46626;-75
2022/06/11 00:26:31;;;;;;;;;7.75;7.75;;;;;19.29;64.88;101304.25;5076255;27;45216;-75
2022/06/11 00:28:57;;;;;;;;;12.00;10.75;;;;;19.22;64.74;101303.81;5076327;27;45314;-76
2022/06/11 00:31:23;;;;;;;;;7.00;7.00;;;;;19.21;65.43;101307.41;5076604;27;45619;-76
2022/06/11 00:33:48;;;;;;;;;12.00;10.75;;;;;19.18;65.09;101307.63;5076145;27;45485;-76
2022/06/11 00:36:13;;;;;;;;;12.50;11.25;;;;;19.17;65.37;101308.56;5075877;28;45334;-76
2022/06/11 00:38:40;;;;;;;;;7.00;7.00;;;;;19.10;65.32;101303.66;5075871;27;45310;-75
2022/06/11 00:41:07;;;;;;;;;7.00;7.00;;;;;19.11;65.38;101305.34;5075873;27;45374;-74
2022/06/11 00:43:33;;;;;;;;;10.00;10.00;;;;;19.07;65.85;101303.81;5075408;27;45708;-76
2022/06/11 00:46:32;;;;;;;;;7.00;7.00;;;;;19.05;65.82;101311.06;5075476;27;45404;-76
2022/06/11 00:48:59;;;;;;;;;10.00;10.00;;;;;19.00;66.23;101299.00;5075564;28;45508;-74
2022/06/11 00:51:24;;;;;;;;;7.50;7.50;;;;;19.01;66.11;101300.72;5074312;28;45570;-75
2022/06/11 00:54:00;;;;;;;;;13.75;13.75;;;;;18.97;66.68;101310.69;5075819;27;46329;-76
2022/06/11 00:56:35;;;;;;;;;13.00;11.25;;;;;18.96;66.47;101306.28;5075438;27;45410;-76
2022/06/11 00:59:04;;;;;;;;;13.00;11.00;;;;;18.94;66.92;101300.19;5075323;27;45297;-77
2022/06/11 01:01:31;;;;;;;;;6.25;6.25;;;;;18.91;66.95;101306.59;5075909;27;45517;-75
2022/06/11 01:03:59;;;;;;;;;9.25;9.25;;;;;18.88;67.07;101300.59;5075337;27;45414;-77
2022/06/11 01:06:45;;;;;;;;;11.25;8.00;;;;;18.82;67.20;101305.38;5076036;28;45397;-76
2022/06/11 01:09:24;;;;;;;;;10.75;10.75;;;;;18.80;67.24;101306.44;5054134;27;45515;-75
2022/06/11 01:12:24;;;;;;;;;9.00;9.00;;;;;18.77;67.49;101306.63;5075464;27;45243;-75
2022/06/11 01:15:00;;;;;;;;;10.00;10.00;;;;;18.74;67.64;101306.81;5075802;27;46525;-76
2022/06/11 01:17:25;;;;;;;;;10.00;10.00;;;;;18.71;67.63;101299.88;5073968;28;45449;-75
2022/06/11 01:20:24;;;;;;;;;8.00;8.00;;;;;18.67;67.88;101298.34;5075734;28;45354;-76
2022/06/11 01:23:14;;;;;;;;;7.00;7.00;;;;;18.64;67.98;101303.88;5075872;28;45516;-76
2022/06/11 01:25:54;;;;;;;;;9.75;9.50;;;;;18.60;68.40;101308.56;5075220;28;45385;-75
2022/06/11 01:28:34;;;;;;;;;10.75;9.00;;;;;18.59;68.35;101303.31;5075555;27;45358;-76
2022/06/11 01:31:32;;;;;;;;;8.75;8.25;;;;;18.55;68.58;101299.97;5075497;27;45378;-76
2022/06/11 01:34:34;;;;;;;;;6.50;6.50;;;;;18.49;68.51;101293.22;5067525;28;45450;-75
2022/06/11 01:37:20;;;;;;;;;9.75;8.00;;;;;18.50;69.10;101296.72;5077164;28;46294;-74
2022/06/11 01:40:10;;;;;;;;;7.00;7.00;;;;;18.48;68.65;101304.84;5076946;27;45340;-75
2022/06/11 01:42:44;;;;;;;;;8.25;8.25;;;;;18.45;69.03;101302.34;5091317;27;45248;-75
2022/06/11 01:45:24;;;;;;;;;10.00;8.00;;;;;18.45;68.94;101309.47;5075462;27;45222;-74
2022/06/11 01:47:51;;;;;;;;;8.75;8.75;;;;;18.43;69.16;101304.25;5075343;27;45601;-75
2022/06/11 01:50:22;;;;;;;;;8.00;8.00;;;;;18.42;69.31;101302.56;5075105;27;45320;-74
2022/06/11 01:53:14;;;;;;;;;11.00;9.50;;;;;18.43;68.83;101308.72;5074146;28;45323;-75
2022/06/11 01:55:58;;;;;;;;;9.25;9.25;;;;;18.39;69.10;101302.75;5075795;28;45296;-75
2022/06/11 01:58:51;;;;;;;;;10.75;9.25;;;;;18.38;69.19;101303.69;5075993;28;45613;-72
2022/06/11 02:01:24;;;;;;;;;13.50;12.25;;;;;18.37;69.35;101308.16;5075343;27;45476;-74
2022/06/11 02:04:25;;;;;;;;;12.25;10.50;;;;;18.36;69.30;101311.75;5075560;27;45436;-73
2022/06/11 02:06:58;;;;;;;;;14.50;13.25;;;;;18.34;69.46;101308.34;5076233;28;45169;-73
2022/06/11 02:09:36;;;;;;;;;15.00;12.75;;;;;18.33;69.55;101311.09;5074974;27;45488;-72
2022/06/11 02:12:21;;;;;;;;;16.00;11.75;;;;;18.32;69.63;101314.72;5074384;27;45231;-73
2022/06/11 02:14:55;;;;;;;;;14.50;12.75;;;;;18.32;69.88;101317.38;5074710;27;45214;-73
2022/06/11 02:17:24;;;;;;;;;9.25;9.25;;;;;18.30;69.75;101308.63;5076188;27;45301;-74
2022/06/11 02:19:59;;;;;;;;;11.75;11.25;;;;;18.25;69.96;101312.44;5074732;27;45982;-73
2022/06/11 02:22:50;;;;;;;;;10.50;9.25;;;;;18.25;70.19;101312.44;5073164;28;45470;-73
2022/06/11 02:25:30;;;;;;;;;9.50;8.50;;;;;18.24;69.75;101310.72;5062729;27;45614;-73
2022/06/11 02:28:01;;;;;;;;;8.25;8.25;;;;;18.23;70.41;101321.44;5074609;27;45497;-74
2022/06/11 02:30:29;;;;;;;;;10.00;8.00;;;;;18.22;70.32;101320.63;5072903;28;47572;-75
2022/06/11 02:32:55;;;;;;;;;7.50;7.50;;;;;18.21;70.43;101318.03;5076556;27;45546;-73
2022/06/11 02:35:38;;;;;;;;;10.25;6.25;;;;;18.18;70.44;101321.75;5094157;27;45359;-74
2022/06/11 02:38:08;;;;;;;;;7.75;7.75;;;;;18.15;70.50;101315.75;5078280;27;45348;-74
2022/06/11 02:40:47;;;;;;;;;7.00;7.00;;;;;18.08;70.79;101315.28;5077845;27;46118;-74
2022/06/11 02:43:13;;;;;;;;;8.50;7.00;;;;;18.11;70.86;101320.41;5077698;27;45386;-73
2022/06/11 02:45:38;;;;;;;;;11.75;8.75;;;;;18.08;71.05;101323.25;5077673;27;45364;-72
2022/06/11 02:48:04;;;;;;;;;7.25;7.00;;;;;18.08;70.70;101325.91;5078247;27;45340;-73
2022/06/11 02:50:33;;;;;;;;;9.00;7.00;;;;;18.02;70.79;101319.16;5077996;27;46282;-73
2022/06/11 02:53:00;;;;;;;;;7.50;7.00;;;;;18.05;70.96;101331.44;5077774;27;45338;-73
2022/06/11 02:55:26;;;;;;;;;8.00;8.00;;;;;18.01;71.18;101325.41;5078100;27;45178;-74
2022/06/11 02:57:53;;;;;;;;;7.50;7.50;;;;;18.00;71.08;101328.13;5078278;27;45515;-74
2022/06/11 03:00:23;;;;;;;;;8.75;7.25;;;;;17.96;71.21;101330.13;5077384;27;46673;-74
2022/06/11 03:02:49;;;;;;;;;9.75;6.75;;;;;17.96;71.16;101320.31;5077669;27;45177;-72
2022/06/11 03:05:18;;;;;;;;;7.50;7.50;;;;;17.92;71.62;101325.94;5077616;28;45410;-73
2022/06/11 03:07:45;;;;;;;;;10.50;9.25;;;;;17.92;71.43;101337.41;5078249;27;45331;-72
2022/06/11 03:10:13;;;;;;;;;7.00;7.00;;;;;17.92;71.63;101337.41;5077140;27;45684;-74
2022/06/11 03:12:38;;;;;;;;;5.00;5.00;;;;;17.87;71.82;101328.84;5110142;27;45567;-73
2022/06/11 03:15:04;;;;;;;;;13.25;11.25;;;;;17.86;71.82;101328.97;5077558;27;45513;-74
2022/06/11 03:17:30;;;;;;;;;10.00;8.50;;;;;17.86;71.76;101336.94;5078128;27;45261;-74
2022/06/11 03:19:55;;;;;;;;;8.50;7.00;;;;;17.82;72.05;101341.56;5077732;27;46377;-73
2022/06/11 03:22:20;;;;;;;;;8.00;6.75;;;;;17.80;72.49;101341.69;5075870;28;45323;-73
2022/06/11 03:24:46;;;;;;;;;6.00;6.00;;;;;17.78;72.44;101343.56;5077476;27;45555;-74
2022/06/11 03:27:12;;;;;;;;;6.00;6.00;;;;;17.77;72.54;101341.88;5078208;28;45358;-73
2022/06/11 03:29:37;;;;;;;;;9.25;7.50;;;;;17.73;72.53;101339.47;5077514;27;47332;-74
2022/06/11 03:32:03;;;;;;;;;8.75;7.00;;;;;17.63;72.47;101328.50;5076826;27;45397;-73
2022/06/11 03:34:29;;;;;;;;;8.00;8.00;;;;;17.70;72.74;101344.97;5092581;27;45377;-73
2022/06/11 03:36:57;;;;;;;;;8.50;6.75;;;;;17.63;73.10;101347.13;5077500;27;45433;-73
2022/06/11 03:39:23;;;;;;;;;7.25;7.25;;;;;17.60;73.35;101358.78;5076790;27;45615;-74
2022/06/11 03:41:49;;;;;;;;;8.00;8.00;;;;;17.62;73.31;101359.56;5076901;27;45813;-74
2022/06/11 03:44:15;;;;;;;;;10.75;10.75;;;;;17.58;73.51;101355.38;5076129;27;45261;-74
2022/06/11 03:46:41;;;;;;;;;10.25;8.50;;;;;17.51;73.79;101354.00;5077280;27;45593;-74
2022/06/11 03:49:07;;;;;;;;;7.75;7.75;;;;;17.54;73.82;101364.47;5076883;27;47307;-73
2022/06/11 03:51:33;;;;;;;;;8.50;8.50;;;;;17.53;73.97;101368.06;5092542;27;45318;-73
2022/06/11 03:53:59;;;;;;;;;6.75;6.50;;;;;17.49;74.04;101364.72;5077203;28;45276;-73
2022/06/11 03:56:25;;;;;;;;;9.00;7.00;;;;;17.51;74.28;101375.28;5110291;27;45371;-74
2022/06/11 03:58:51;;;;;;;;;7.75;7.75;;;;;17.49;74.39;101377.19;5076957;27;45470;-74
2022/06/11 04:01:21;;;;;;;;;12.00;8.00;;;;;17.49;74.38;101379.84;5076409;27;45263;-73
2022/06/11 04:03:49;;;;;;;;;8.00;8.00;;;;;17.46;74.59;101385.31;5076526;27;45333;-73
2022/06/11 04:06:17;;;;;;;;;7.50;7.50;;;;;17.44;74.71;101388.06;5076946;27;45380;-73
2022/06/11 04:08:43;;;;;;;;;8.00;8.00;;;;;17.41;74.91;101388.22;5076307;27;46343;-73
2022/06/11 04:11:10;;;;;;;;;7.00;7.00;;;;;17.39;75.19;101384.81;5076265;28;45289;-73
2022/06/11 04:13:38;;;;;;;;;11.00;9.25;;;;;17.37;75.06;101397.31;5092631;27;45378;-73
2022/06/11 04:16:04;;;;;;;;;8.00;8.00;;;;;17.36;75.22;101396.47;5077906;27;45411;-73
2022/06/11 04:18:33;;;;;;;;;8.75;7.50;;;;;17.36;75.50;101404.47;5077020;27;45970;-74
2022/06/11 04:21:01;;;;;;;;;7.00;7.00;;;;;17.35;75.53;101400.09;5076618;27;45272;-74
2022/06/11 04:23:29;;;;;;;;;9.75;9.75;;;;;17.36;75.55;101406.25;5076514;27;45345;-73
2022/06/11 04:25:57;;;;;;;;;8.75;8.00;;;;;17.35;75.67;101405.41;5076564;27;45291;-73
2022/06/11 04:28:23;;;;;;;;;8.50;8.50;;;;;17.33;75.90;101401.97;5074697;28;46285;-73
2022/06/11 04:30:48;;;;;;;;;7.75;6.75;;;;;17.31;75.76;101392.34;5076138;27;45250;-73
2022/06/11 04:33:14;;;;;;;;;7.75;7.75;;;;;17.35;75.71;101404.53;5076113;27;45307;-74
2022/06/11 04:35:39;;;;;;;;;9.00;9.00;;;;;17.38;75.97;101420.31;5074944;28;45267;-73
2022/06/11 04:38:05;;;;;;;;;9.25;9.25;;;;;17.37;76.42;101414.16;5076194;27;46457;-73
2022/06/11 04:40:30;;;;;;;;;7.50;7.50;;;;;17.37;76.57;101422.13;5076420;27;45362;-74
2022/06/11 04:42:55;;;;;;;;;12.75;9.50;;;;;17.31;76.50;101413.63;5076070;27;45274;-73
2022/06/11 04:45:21;;;;;;;;;8.75;8.75;;;;;17.35;76.36;101429.34;5076005;27;45349;-73
2022/06/11 04:47:47;;;;;;;;;10.75;10.00;;;;;17.33;76.71;101422.38;5075744;27;45290;-73
2022/06/11 04:50:16;;;;;;;;;10.75;8.00;;;;;17.37;76.58;101423.91;5075856;27;45322;-73
2022/06/11 04:52:41;;;;;;;;;10.50;9.50;;;;;17.35;76.87;101432.00;5076022;28;45274;-73
2022/06/11 04:55:07;;;;;;;;;10.50;8.00;;;;;17.35;76.78;101426.69;5075479;27;45364;-73
2022/06/11 04:57:33;;;;;;;;;11.25;10.00;;;;;17.47;76.68;101429.59;5073610;28;46998;-73
2022/06/11 04:59:58;;;;;;;;;12.25;10.75;;;;;17.78;76.04;101434.06;5076038;27;45275;-73
2022/06/11 05:02:24;;;;;;;;;10.25;8.50;;;;;18.03;74.92;101411.38;5075962;27;45342;-73
2022/06/11 05:04:52;;;;;;;;;9.50;8.25;;;;;18.51;74.13;101426.31;5075820;27;45226;-74
2022/06/11 05:07:18;;;;;;;;;10.75;8.75;;;;;18.94;73.27;101426.38;5091212;27;46127;-73
2022/06/11 05:09:43;;;;;;;;;8.00;6.75;;;;;19.35;71.89;101422.06;5075269;27;45548;-73
2022/06/11 05:12:11;;;;;;;;;8.00;8.00;;;;;19.71;70.67;101428.63;5074151;28;45399;-74
2022/06/11 05:14:36;;;;;;;;;9.00;9.00;;;;;20.08;69.29;101428.03;5075737;27;45431;-74
2022/06/11 05:17:02;;;;;;;;;11.25;9.50;;;;;20.44;68.45;101429.16;5076034;27;45443;-74
2022/06/11 05:19:28;;;;;;;;;9.50;7.50;;;;;20.87;66.92;101425.38;5075501;27;45339;-73
2022/06/11 05:21:55;;;;;;;;;11.75;8.75;;;;;21.20;66.21;101431.09;5075591;27;45251;-74
2022/06/11 05:24:20;;;;;;;;;9.75;8.25;;;;;21.33;65.08;101431.06;5108746;27;45654;-74
2022/06/11 05:26:53;;;;;;;;;6.50;6.25;;;;;21.35;64.86;101434.50;5075425;27;45268;-74
2022/06/11 05:29:32;;;;;;;;;6.00;4.25;;;;;21.35;64.55;101423.78;5075522;28;45231;-73
2022/06/11 05:31:57;;;;;;;;;10.50;8.00;;;;;21.36;64.23;101435.34;5075220;27;45305;-73
2022/06/11 05:34:23;;;;;;;;;9.50;8.25;;;;;21.37;63.92;101427.22;5076067;28;45217;-74
2022/06/11 05:36:48;;;;;;;;;7.50;7.50;;;;;21.41;63.61;101422.47;5075666;27;46329;-75
2022/06/11 05:39:14;;;;;;;;;7.00;7.00;;;;;21.43;64.14;101428.56;5076091;27;45505;-73
2022/06/11 05:41:40;;;;;;;;;8.00;5.75;;;;;21.53;63.52;101420.72;5075384;27;45361;-73
2022/06/11 05:44:06;;;;;;;;;9.50;9.50;;;;;21.58;63.16;101422.09;5074873;27;45363;-74
2022/06/11 05:46:32;;;;;;;;;10.50;10.50;;;;;21.63;63.25;101416.44;5075078;27;45349;-74
2022/06/11 05:49:04;;;;;;;;;8.75;8.75;;;;;21.68;62.86;101422.31;5074857;27;45362;-74
2022/06/11 05:51:40;;;;;;;;;9.50;9.00;;;;;21.59;62.49;101429.16;5075258;28;45251;-74
2022/06/11 05:54:10;;;;;;;;;8.50;8.50;;;;;21.43;62.80;101433.91;5108001;27;45481;-74
2022/06/11 05:56:37;;;;;;;;;11.50;8.75;;;;;21.29;63.06;101433.09;5074877;27;45378;-72
2022/06/11 05:59:08;;;;;;;;;9.75;8.75;;;;;21.19;63.35;101431.19;5075189;28;45342;-74
2022/06/11 06:01:38;;;;;;;;;10.25;9.25;;;;;21.07;63.93;101428.44;5073710;28;45309;-73
2022/06/11 06:04:03;;;;;;;;;9.50;9.50;;;;;21.01;64.05;101435.09;5075529;27;45334;-76
2022/06/11 06:06:29;;;;;;;;;12.25;9.75;;;;;20.80;63.63;101434.78;5074790;27;46386;-74
2022/06/11 06:08:55;;;;;;;;;9.75;9.75;;;;;20.70;64.47;101444.38;5078143;27;45404;-74
2022/06/11 06:11:20;;;;;;;;;11.00;10.00;;;;;20.58;64.99;101438.06;5078253;27;46040;-74
2022/06/11 06:13:45;;;;;;;;;11.00;11.00;;;;;20.53;65.49;101432.16;5094084;27;45536;-73
2022/06/11 06:16:11;;;;;;;;;10.25;10.25;;;;;20.47;65.13;101444.16;5077877;27;46005;-76
2022/06/11 06:18:36;;;;;;;;;10.50;10.50;;;;;20.41;65.91;101441.91;5078336;27;45443;-75
2022/06/11 06:21:02;;;;;;;;;11.75;10.25;;;;;20.41;65.83;101444.56;5078457;27;45366;-76
2022/06/11 06:23:31;;;;;;;;;10.00;10.00;;;;;20.34;65.76;101433.44;5076849;28;45469;-74
2022/06/11 06:25:56;;;;;;;;;10.50;10.50;;;;;20.28;65.98;101436.53;5077886;27;46573;-75
2022/06/11 06:28:21;;;;;;;;;11.25;11.25;;;;;20.02;66.51;101431.13;5077517;27;45499;-76
2022/06/11 06:30:47;;;;;;;;;10.50;10.50;;;;;19.96;67.17;101432.38;5078144;27;45392;-75
2022/06/11 06:33:12;;;;;;;;;9.50;9.50;;;;;19.98;67.01;101441.16;5078144;27;45228;-74
2022/06/11 06:35:38;;;;;;;;;11.25;11.25;;;;;19.97;66.93;101434.09;5076127;28;48519;-74
2022/06/11 06:38:03;;;;;;;;;12.00;11.00;;;;;20.04;67.45;101431.88;5078061;27;45358;-75
2022/06/11 06:40:29;;;;;;;;;7.75;7.75;;;;;20.19;66.92;101438.03;5077910;27;45323;-75
2022/06/11 06:42:55;;;;;;;;;9.00;8.25;;;;;20.37;67.03;101437.72;5076638;28;45528;-76
2022/06/11 06:45:20;;;;;;;;;9.25;8.75;;;;;20.66;66.66;101442.88;5077534;28;46004;-76
2022/06/11 06:47:46;;;;;;;;;11.00;9.00;;;;;20.97;66.10;101443.44;5076202;28;45553;-75
2022/06/11 06:50:12;;;;;;;;;10.25;10.25;;;;;21.29;65.00;101448.31;5076744;28;45327;-75
2022/06/11 06:52:37;;;;;;;;;9.00;9.00;;;;;21.46;64.13;101452.44;5078712;27;45685;-75
2022/06/11 06:55:03;;;;;;;;;9.50;8.25;;;;;21.62;63.22;101445.94;5077947;28;47507;-76
2022/06/11 06:57:29;;;;;;;;;10.00;8.50;;;;;21.64;62.98;101446.72;5078270;27;45444;-75
2022/06/11 06:59:54;;;;;;;;;7.25;7.25;;;;;21.70;62.25;101443.59;5077703;27;45220;-75
2022/06/11 07:02:19;;;;;;;;;12.50;8.50;;;;;21.80;62.21;101436.63;5077676;27;45592;-75
2022/06/11 07:04:45;;;;;;;;;10.00;8.75;;;;;21.94;61.48;101448.97;5078753;27;46197;-80
2022/06/11 07:07:15;;;;;;;;;11.25;8.00;;;;;22.07;60.68;101456.06;5079692;27;45381;-78
2022/06/11 07:09:41;;;;;;;;;8.00;8.00;;;;;22.18;60.88;101453.44;5079889;27;45500;-83
2022/06/11 07:12:07;;;;;;;;;8.25;8.25;;;;;22.20;61.29;101440.78;5077534;27;45547;-75
2022/06/11 07:14:32;;;;;;;;;8.00;6.50;;;;;22.36;59.68;101448.50;5076901;27;45474;-74
2022/06/11 07:17:02;;;;;;;;;7.75;7.75;;;;;22.41;60.09;101457.03;5077714;27;45486;-72
2022/06/11 07:19:35;;;;;;;;;9.00;7.00;;;;;22.56;59.42;101454.19;5077361;27;45276;-78
2022/06/11 07:22:03;;;;;;;;;10.00;9.50;;;;;;;;5078460;27;45219;-76
2022/06/11 07:24:32;;;;;;;;;10.00;8.25;;;;;22.87;58.13;101454.50;5079723;27;46568;-77
2022/06/11 07:27:04;;;;;;;;;7.75;6.50;;;;;22.87;59.24;101458.00;5078013;28;45351;-74
2022/06/11 07:29:40;;;;;;;;;11.00;6.75;;;;;22.99;58.75;101458.00;5077058;27;45391;-73
2022/06/11 07:32:13;;;;;;;;;8.25;8.25;;;;;23.12;58.55;101453.38;5079151;27;45419;-79
2022/06/11 07:34:39;;;;;;;;;6.50;6.50;;;;;23.29;57.85;101453.88;5077049;28;46168;-76
2022/06/11 07:37:04;;;;;;;;;7.50;7.50;;;;;23.44;57.47;101459.84;5076653;27;45441;-78
2022/06/11 07:39:30;;;;;;;;;8.75;8.75;;;;;23.49;56.72;101457.63;5076830;27;45421;-77
2022/06/11 07:41:55;;;;;;;;;7.25;7.25;;;;;23.43;56.92;101455.47;5077121;27;45695;-76
2022/06/11 07:44:20;;;;;;;;;8.75;7.25;;;;;23.45;56.84;101465.09;5092237;27;46115;-74
2022/06/11 07:46:46;;;;;;;;;9.75;8.00;;;;;23.33;56.53;101452.69;5076475;27;45424;-74
2022/06/11 07:49:13;;;;;;;;;7.25;7.25;;;;;23.36;56.98;101456.94;5076735;28;45454;-75
2022/06/11 07:51:38;;;;;;;;;7.00;6.00;;;;;23.34;56.96;101457.06;5075847;27;45528;-73
2022/06/11 07:54:03;;;;;;;;;8.00;8.00;;;;;23.36;56.43;101459.63;5075962;27;45347;-74
2022/06/11 07:56:29;;;;;;;;;8.25;6.75;;;;;23.36;56.60;101459.63;5076573;28;45347;-74
2022/06/11 07:58:54;;;;;;;;;6.25;6.25;;;;;23.32;56.71;101456.31;5075583;28;45236;-74
2022/06/11 08:01:20;;;;;;;;;6.25;6.25;;;;;23.37;56.02;101454.13;5076756;27;45227;-75
2022/06/11 08:03:45;;;;;;;;;8.00;7.00;;;;;23.42;56.13;101462.69;5091944;27;48250;-76
2022/06/11 08:06:12;;;;;;;;;7.25;7.25;;;;;23.41;56.02;101460.97;5076632;27;45439;-76
2022/06/11 08:08:38;;;;;;;;;8.50;8.50;;;;;23.51;56.63;101466.44;5076924;27;45279;-73
2022/06/11 08:11:05;;;;;;;;;7.00;7.00;;;;;23.62;56.32;101458.34;5076154;27;45386;-74
2022/06/11 08:13:31;;;;;;;;;7.00;7.00;;;;;23.63;55.63;101462.72;5076043;27;45391;-74
2022/06/11 08:15:58;;;;;;;;;7.50;6.00;;;;;23.44;55.29;101463.41;5075764;27;45465;-73
2022/06/11 08:18:25;;;;;;;;;8.75;8.25;;;;;23.32;55.77;101457.19;5076115;27;45330;-75
2022/06/11 08:20:51;;;;;;;;;10.00;7.50;;;;;23.41;55.90;101468.16;5076192;27;45348;-72
2022/06/11 08:23:17;;;;;;;;;7.00;7.00;;;;;23.37;55.33;101458.63;5075874;27;47042;-74
2022/06/11 08:25:44;;;;;;;;;7.00;7.00;;;;;23.29;55.47;101462.81;5108588;27;45396;-73
2022/06/11 08:28:12;;;;;;;;;7.25;6.50;;;;;23.26;55.61;101456.81;5076016;27;45290;-74
2022/06/11 08:30:38;;;;;;;;;6.50;6.50;;;;;23.17;55.55;101456.53;5075888;27;45549;-73
2022/06/11 08:33:03;;;;;;;;;6.50;5.00;;;;;23.11;54.89;101462.41;5075456;27;46115;-75
2022/06/11 08:35:30;;;;;;;;;9.25;7.25;;;;;23.03;55.75;101462.16;5108616;27;45324;-75
2022/06/11 08:37:56;;;;;;;;;9.00;5.75;;;;;22.94;55.56;101462.88;5076082;27;45212;-76
2022/06/11 08:40:28;;;;;;;;;11.25;10.75;;;;;22.87;55.83;101460.69;5076182;27;45231;-76
2022/06/11 08:43:13;;;;;;;;;5.50;5.50;;;;;22.81;55.79;101458.50;5074534;28;48178;-77
2022/06/11 08:45:42;;;;;;;;;8.75;8.75;;;;;;;;5076542;27;45304;-74
2022/06/11 08:48:23;;;;;;;;;10.00;9.50;;;;;22.72;56.02;101459.22;5077175;27;45330;-76
2022/06/11 08:51:11;;;;;;;;;6.50;5.50;;;;;22.67;56.49;101453.38;5077250;27;45427;-78
2022/06/11 08:53:38;;;;;;;;;8.50;8.50;;;;;22.64;56.08;101451.75;5077653;28;46566;-77
2022/06/11 08:56:10;;;;;;;;;9.25;8.75;;;;;22.69;56.56;101443.38;5078816;27;45332;-79
2022/06/11 08:58:45;;;;;;;;;8.75;7.00;;;;;22.85;56.08;101449.22;5093353;27;45268;-77
2022/06/11 09:01:24;;;;;;;;;8.00;8.00;;;;;22.87;56.25;101447.28;5078959;27;45389;-80
2022/06/11 09:03:58;;;;;;;;;5.25;5.25;;;;;22.82;54.96;101454.00;5079426;27;46563;-78
2022/06/11 09:06:55;;;;;;;;;5.00;5.00;;;;;22.77;55.38;101443.63;5078401;28;45910;-80
2022/06/11 09:09:33;;;;;;;;;5.50;5.50;;;;;22.78;55.83;101445.31;5078355;28;45311;-81
2022/06/11 09:12:30;;;;;;;;;8.00;6.00;;;;;22.76;55.08;101441.91;5078287;27;45380;-76
2022/06/11 09:15:34;;;;;;;;;8.00;5.25;;;;;22.75;54.27;101438.34;5077865;27;46356;-78
2022/06/11 09:18:17;;;;;;;;;6.50;6.00;;;;;22.79;54.61;101441.66;5077972;27;45367;-78
2022/06/11 09:21:06;;;;;;;;;4.50;4.25;;;;;22.86;54.40;101440.22;5080890;27;45362;-77
2022/06/11 09:24:01;;;;;;;;;7.75;6.25;;;;;22.94;53.79;101433.38;5078090;28;45493;-75
2022/06/11 09:27:03;;;;;;;;;8.25;6.75;;;;;23.00;53.84;101425.72;5077265;27;45401;-78
2022/06/11 09:29:40;;;;;;;;;8.25;5.00;;;;;23.20;53.86;101436.66;5080627;27;45334;-77
2022/06/11 09:32:06;;;;;;;;;10.00;6.50;;;;;23.37;54.20;101438.03;5081426;28;45408;-78
2022/06/11 09:34:47;;;;;;;;;2.00;2.00;;;;;23.51;54.03;101433.38;5083532;27;45604;-77
2022/06/11 09:37:14;;;;;;;;;4.25;4.25;;;;;23.64;53.11;101428.69;5082439;28;45281;-77
2022/06/11 09:39:49;;;;;;;;;8.00;6.50;;;;;23.89;53.00;101432.00;5081039;27;45247;-79
2022/06/11 09:42:29;;;;;;;;;8.00;6.00;;;;;24.16;52.49;101436.94;5078826;27;45299;-75
2022/06/11 09:45:20;;;;;;;;;7.00;5.50;;;;;24.21;51.83;101442.78;5085065;27;45625;-78
2022/06/11 09:48:28;;;;;;;;;10.50;8.75;;;;;24.25;51.80;101440.66;5092537;27;45499;-82
2022/06/11 09:51:10;;;;;;;;;7.00;6.00;;;;;24.32;51.13;101433.78;5084674;27;45314;-82
2022/06/11 09:53:43;;;;;;;;;8.75;8.75;;;;;24.40;51.39;101435.00;5083005;27;45289;-78
2022/06/11 09:56:19;;;;;;;;;11.00;9.25;;;;;24.51;50.73;101442.97;5080376;27;45335;-79
2022/06/11 09:58:53;;;;;;;;;7.50;7.50;;;;;24.64;50.88;101438.25;5078263;27;45275;-75
2022/06/11 10:01:29;;;;;;;;;4.50;4.00;;;;;24.78;50.10;101438.91;5077920;28;45322;-77
2022/06/11 10:04:07;;;;;;;;;19.25;18.00;;;;;24.78;49.82;101447.81;5078582;27;45370;-77
2022/06/11 10:06:41;;;;;;;;;4.00;4.00;;;;;24.61;48.92;101443.88;5080632;27;45298;-76
2022/06/11 10:09:24;;;;;;;;;21.50;18.50;;;;;24.56;50.53;101434.50;5078680;28;46881;-81
2022/06/11 10:11:58;;;;;;;;;36.00;32.00;;;;;24.73;49.86;101441.13;5078734;27;45340;-77
2022/06/11 10:14:38;;;;;;;;;5.25;5.25;;;;;24.86;49.72;101436.38;5078486;27;45265;-74
2022/06/11 10:17:12;;;;;;;;;21.50;20.50;;;;;25.12;50.30;101432.38;5078013;27;45266;-74
2022/06/11 10:19:40;;;;;;;;;5.25;4.00;;;;;25.33;49.70;101432.28;5077587;28;46452;-75
2022/06/11 10:22:20;;;;;;;;;5.00;5.00;;;;;25.61;48.64;101435.22;5076414;28;45866;-74
2022/06/11 10:25:00;;;;;;;;;18.00;15.50;;;;;25.92;48.47;101427.84;5078041;27;45307;-73
2022/06/11 10:27:29;;;;;;;;;6.50;5.50;;;;;26.17;48.07;101438.22;5078181;27;45297;-71
2022/06/11 10:30:02;;;;;;;;;9.25;9.25;;;;;26.08;48.51;101429.97;5077646;27;45338;-74
2022/06/11 10:32:37;;;;;;;;;5.00;5.00;;;;;25.93;47.61;101434.09;5077780;27;45322;-74
2022/06/11 10:35:17;;;;;;;;;8.25;5.25;;;;;25.65;48.26;101437.50;5078009;27;45296;-75
2022/06/11 10:37:51;;;;;;;;;7.25;6.50;;;;;25.40;48.41;101433.44;5109802;27;45657;-72
2022/06/11 10:40:30;;;;;;;;;4.75;4.25;;;;;25.19;48.24;101430.84;5090674;27;45503;-75
2022/06/11 10:43:11;;;;;;;;;5.50;5.50;;;;;25.06;48.78;101423.88;5097481;27;45379;-74
2022/06/11 10:45:37;;;;;;;;;5.25;5.25;;;;;25.02;48.58;101425.13;5097545;27;45389;-73
2022/06/11 10:48:13;;;;;;;;;7.25;6.25;;;;;25.07;48.56;101427.41;5096456;27;45374;-74
2022/06/11 10:50:39;;;;;;;;;12.50;10.75;;;;;25.20;48.55;101424.47;5097422;27;46741;-72
2022/06/11 10:53:19;;;;;;;;;9.50;7.50;;;;;25.52;48.37;101429.69;5096295;27;46357;-72
2022/06/11 10:55:51;;;;;;;;;9.25;8.00;;;;;25.93;47.41;101428.72;5074632;28;45504;-72
2022/06/11 10:58:16;;;;;;;;;4.50;4.50;;;;;26.23;46.76;101426.88;5077122;27;45635;-73
2022/06/11 11:00:50;;;;;;;;;9.00;9.00;;;;;26.44;45.99;101426.69;5077639;27;46137;-71
2022/06/11 11:03:25;;;;;;;;;7.75;5.50;;;;;26.34;45.69;101429.41;5076500;28;45266;-71
2022/06/11 11:06:06;;;;;;;;;6.00;6.00;;;;;26.29;45.70;101428.16;5075596;28;45331;-74
2022/06/11 11:08:43;;;;;;;;;6.00;6.00;;;;;26.20;45.54;101432.56;5077232;27;45305;-71
2022/06/11 11:11:10;;;;;;;;;5.75;4.00;;;;;26.27;45.32;101428.28;5076492;27;45396;-73
2022/06/11 11:13:35;;;;;;;;;6.25;6.00;;;;;26.36;45.24;101427.41;5076955;27;45341;-71
2022/06/11 11:16:25;;;;;;;;;5.00;5.00;;;;;26.31;45.52;101424.31;5076850;27;45335;-72
2022/06/11 11:18:53;;;;;;;;;5.50;5.50;;;;;26.17;44.88;101425.63;5077746;27;45366;-71
2022/06/11 11:21:28;;;;;;;;;8.00;8.00;;;;;25.91;44.92;101403.75;5076938;28;45632;-72
2022/06/11 11:23:58;;;;;;;;;6.75;6.25;;;;;25.89;45.30;101414.66;5076533;28;45440;-71
2022/06/11 11:26:33;;;;;;;;;8.50;7.00;;;;;25.93;45.46;101417.94;5076644;27;45315;-72
2022/06/11 11:29:15;;;;;;;;;5.25;5.25;;;;;26.06;45.47;101412.25;5075373;28;45482;-72
2022/06/11 11:31:45;;;;;;;;;4.00;4.00;;;;;26.17;45.24;101414.84;5076080;27;45466;-72
2022/06/11 11:34:12;;;;;;;;;5.50;5.50;;;;;26.14;45.28;101422.31;5076546;27;45445;-72
2022/06/11 11:36:38;;;;;;;;;8.25;5.25;;;;;26.03;44.88;101420.63;5076259;27;45380;-72
2022/06/11 11:39:12;;;;;;;;;5.50;5.00;;;;;25.95;44.54;101432.94;5076443;27;45379;-72
2022/06/11 11:42:06;;;;;;;;;6.75;5.75;;;;;25.78;45.08;101412.97;5075924;27;46312;-72